sensor_id;sensor_type;location;lat;lon;timestamp;pressure;altitude;pressure_sealevel;temperature;humidity
19600;BME280;9947;57.722;12.012;2023-05-22T00:00:28;101857.53;;;13.68;100.00
19600;BME280;9947;57.722;12.012;2023-05-22T00:02:56;101856.88;;;13.65;100.00
19600;BME280;9947;57.722;12.012;2023-05-22T00:05:26;101859.50;;;13.66;100.00
19600;BME280;9947;57.722;12.012;2023-05-22T00:07:55;101854.28;;;13.63;100.00
19600;BME280;9947;57.722;12.012;2023-05-22T00:10:23;101852.78;;;13.59;100.00
19600;BME280;9947;57.722;12.012;2023-05-22T00:12:55;101849.28;;;13.57;100.00
19600;BME280;9947;57.722;12.012;2023-05-22T00:15:27;101854.72;;;13.57;100.00
19600;BME280;9947;57.722;12.012;2023-05-22T00:17:54;101854.38;;;13.49;100.00
19600;BME280;9947;57.722;12.012;2023-05-22T00:20:25;101853.50;;;13.48;100.00
19600;BME280;9947;57.722;12.012;2023-05-22T00:22:53;101856.34;;;13.47;100.00
19600;BME280;9947;57.722;12.012;2023-05-22T00:25:21;101846.69;;;13.43;100.00
19600;BME280;9947;57.722;12.012;2023-05-22T00:27:48;101855.59;;;13.45;100.00
19600;BME280;9947;57.722;12.012;2023-05-22T00:30:17;101847.00;;;13.38;100.00
19600;BME280;9947;57.722;12.012;2023-05-22T00:36:05;101848.09;;;13.36;100.00
19600;BME280;9947;57.722;12.012;2023-05-22T00:38:34;101843.88;;;13.32;100.00
19600;BME280;9947;57.722;12.012;2023-05-22T00:41:03;101844.84;;;13.31;100.00
19600;BME280;9947;57.722;12.012;2023-05-22T00:43:32;101842.88;;;13.33;100.00
19600;BME280;9947;57.722;12.012;2023-05-22T00:46:00;101847.56;;;13.31;100.00
19600;BME280;9947;57.722;12.012;2023-05-22T00:48:38;101844.75;;;13.32;100.00
19600;BME280;9947;57.722;12.012;2023-05-22T00:51:13;101846.81;;;13.29;100.00
19600;BME280;9947;57.722;12.012;2023-05-22T00:53:46;101846.38;;;13.35;100.00
19600;BME280;9947;57.722;12.012;2023-05-22T00:56:18;101849.50;;;13.41;100.00
19600;BME280;9947;57.722;12.012;2023-05-22T00:58:54;101840.59;;;13.39;100.00
19600;BME280;9947;57.722;12.012;2023-05-22T01:01:24;101841.47;;;13.40;100.00
19600;BME280;9947;57.722;12.012;2023-05-22T01:04:01;101846.91;;;13.40;100.00
19600;BME280;9947;57.722;12.012;2023-05-22T01:06:38;101844.19;;;13.40;100.00
19600;BME280;9947;57.722;12.012;2023-05-22T01:09:07;101846.91;;;13.40;100.00
19600;BME280;9947;57.722;12.012;2023-05-22T01:11:46;101843.63;;;13.47;100.00
19600;BME280;9947;57.722;12.012;2023-05-22T01:14:24;101837.34;;;13.34;100.00
19600;BME280;9947;57.722;12.012;2023-05-22T01:17:06;101846.16;;;13.38;100.00
19600;BME280;9947;57.722;12.012;2023-05-22T01:22:12;101845.72;;;13.31;100.00
19600;BME280;9947;57.722;12.012;2023-05-22T01:25:06;101841.03;;;13.33;100.00
19600;BME280;9947;57.722;12.012;2023-05-22T01:28:01;101840.28;;;13.31;100.00
19600;BME280;9947;57.722;12.012;2023-05-22T01:33:05;101840.41;;;13.30;100.00
19600;BME280;9947;57.722;12.012;2023-05-22T01:35:44;101840.59;;;13.26;100.00
19600;BME280;9947;57.722;12.012;2023-05-22T01:38:12;101841.88;;;13.21;100.00
19600;BME280;9947;57.722;12.012;2023-05-22T01:41:06;101839.81;;;13.24;100.00
19600;BME280;9947;57.722;12.012;2023-05-22T01:43:40;101838.31;;;13.20;100.00
19600;BME280;9947;57.722;12.012;2023-05-22T01:46:08;101835.81;;;13.17;100.00
19600;BME280;9947;57.722;12.012;2023-05-22T01:48:51;101834.25;;;13.13;100.00
19600;BME280;9947;57.722;12.012;2023-05-22T01:51:24;101836.66;;;13.05;100.00
19600;BME280;9947;57.722;12.012;2023-05-22T01:54:00;101832.97;;;13.06;100.00
19600;BME280;9947;57.722;12.012;2023-05-22T01:59:42;101836.00;;;13.02;100.00
19600;BME280;9947;57.722;12.012;2023-05-22T02:02:13;101834.03;;;13.04;100.00
19600;BME280;9947;57.722;12.012;2023-05-22T02:07:18;101830.75;;;12.98;100.00
19600;BME280;9947;57.722;12.012;2023-05-22T02:15:04;101831.44;;;13.02;100.00
19600;BME280;9947;57.722;12.012;2023-05-22T02:17:40;101832.19;;;13.04;100.00
19600;BME280;9947;57.722;12.012;2023-05-22T02:20:13;101828.63;;;13.04;100.00
19600;BME280;9947;57.722;12.012;2023-05-22T02:22:46;101831.34;;;13.04;100.00
19600;BME280;9947;57.722;12.012;2023-05-22T02:25:14;101827.53;;;13.06;100.00
19600;BME280;9947;57.722;12.012;2023-05-22T02:27:54;101824.81;;;13.06;100.00
19600;BME280;9947;57.722;12.012;2023-05-22T02:36:07;101823.72;;;13.09;100.00
19600;BME280;9947;57.722;12.012;2023-05-22T02:46:17;101823.84;;;13.20;100.00
19600;BME280;9947;57.722;12.012;2023-05-22T02:48:58;101825.72;;;13.19;100.00
19600;BME280;9947;57.722;12.012;2023-05-22T02:51:30;101830.06;;;13.22;100.00
19600;BME280;9947;57.722;12.012;2023-05-22T02:54:02;101833.84;;;13.19;100.00
19600;BME280;9947;57.722;12.012;2023-05-22T02:56:32;101837.44;;;13.20;100.00
19600;BME280;9947;57.722;12.012;2023-05-22T02:59:01;101825.72;;;13.19;100.00
19600;BME280;9947;57.722;12.012;2023-05-22T03:04:07;101830.91;;;13.22;100.00
19600;BME280;9947;57.722;12.012;2023-05-22T03:06:39;101827.78;;;13.29;100.00
19600;BME280;9947;57.722;12.012;2023-05-22T03:09:10;101820.19;;;13.34;100.00
19600;BME280;9947;57.722;12.012;2023-05-22T03:11:38;101815.94;;;13.42;100.00
19600;BME280;9947;57.722;12.012;2023-05-22T03:14:06;101828.44;;;13.45;100.00
19600;BME280;9947;57.722;12.012;2023-05-22T03:16:37;101816.56;;;13.46;100.00
19600;BME280;9947;57.722;12.012;2023-05-22T03:19:10;101811.56;;;13.52;100.00
19600;BME280;9947;57.722;12.012;2023-05-22T03:21:40;101820.06;;;13.61;100.00
19600;BME280;9947;57.722;12.012;2023-05-22T03:24:09;101816.78;;;13.68;100.00
19600;BME280;9947;57.722;12.012;2023-05-22T03:26:39;101819.47;;;13.81;100.00
19600;BME280;9947;57.722;12.012;2023-05-22T03:29:08;101813.50;;;13.76;100.00
19600;BME280;9947;57.722;12.012;2023-05-22T03:31:40;101817.06;;;13.76;100.00
19600;BME280;9947;57.722;12.012;2023-05-22T03:34:12;101816.31;;;13.74;100.00
19600;BME280;9947;57.722;12.012;2023-05-22T03:36:41;101811.75;;;13.75;100.00
19600;BME280;9947;57.722;12.012;2023-05-22T03:39:10;101815.09;;;13.78;100.00
19600;BME280;9947;57.722;12.012;2023-05-22T03:41:37;101814.69;;;13.84;100.00
19600;BME280;9947;57.722;12.012;2023-05-22T03:44:06;101814.81;;;13.70;100.00
19600;BME280;9947;57.722;12.012;2023-05-22T03:46:34;101809.69;;;13.78;100.00
19600;BME280;9947;57.722;12.012;2023-05-22T03:49:01;101806.97;;;13.78;100.00
19600;BME280;9947;57.722;12.012;2023-05-22T03:51:30;101817.31;;;13.73;100.00
19600;BME280;9947;57.722;12.012;2023-05-22T03:53:58;101811.63;;;13.89;100.00
19600;BME280;9947;57.722;12.012;2023-05-22T03:56:25;101816.13;;;14.01;100.00
19600;BME280;9947;57.722;12.012;2023-05-22T03:58:53;101817.34;;;13.97;100.00
19600;BME280;9947;57.722;12.012;2023-05-22T04:01:31;101812.44;;;14.02;100.00
19600;BME280;9947;57.722;12.012;2023-05-22T04:04:11;101813.41;;;14.14;100.00
19600;BME280;9947;57.722;12.012;2023-05-22T04:06:40;101813.03;;;14.18;100.00
19600;BME280;9947;57.722;12.012;2023-05-22T04:09:10;101814.50;;;14.35;100.00
19600;BME280;9947;57.722;12.012;2023-05-22T04:11:39;101816.59;;;14.32;100.00
19600;BME280;9947;57.722;12.012;2023-05-22T04:14:11;101816.75;;;14.41;100.00
19600;BME280;9947;57.722;12.012;2023-05-22T04:16:55;101804.44;;;14.48;100.00
19600;BME280;9947;57.722;12.012;2023-05-22T04:19:27;101809.88;;;14.48;100.00
19600;BME280;9947;57.722;12.012;2023-05-22T04:22:08;101803.69;;;14.70;100.00
19600;BME280;9947;57.722;12.012;2023-05-22T04:24:37;101803.63;;;14.94;100.00
19600;BME280;9947;57.722;12.012;2023-05-22T04:27:06;101804.44;;;15.19;100.00
19600;BME280;9947;57.722;12.012;2023-05-22T04:29:34;101801.13;;;15.37;100.00
19600;BME280;9947;57.722;12.012;2023-05-22T04:32:02;101797.75;;;16.01;100.00
19600;BME280;9947;57.722;12.012;2023-05-22T04:34:32;101800.91;;;16.28;100.00
19600;BME280;9947;57.722;12.012;2023-05-22T04:37:03;101797.66;;;17.50;100.00
19600;BME280;9947;57.722;12.012;2023-05-22T04:39:31;101801.28;;;18.60;100.00
19600;BME280;9947;57.722;12.012;2023-05-22T04:42:01;101794.22;;;18.96;100.00
19600;BME280;9947;57.722;12.012;2023-05-22T04:44:30;101798.53;;;18.50;100.00
19600;BME280;9947;57.722;12.012;2023-05-22T04:46:59;101796.09;;;20.16;91.87
19600;BME280;9947;57.722;12.012;2023-05-22T04:49:28;101792.34;;;19.90;85.96
19600;BME280;9947;57.722;12.012;2023-05-22T04:51:58;101789.94;;;20.85;82.32
19600;BME280;9947;57.722;12.012;2023-05-22T04:54:31;101790.66;;;20.87;78.93
19600;BME280;9947;57.722;12.012;2023-05-22T04:57:01;101790.31;;;19.92;84.32
19600;BME280;9947;57.722;12.012;2023-05-22T04:59:35;101783.91;;;20.82;79.05
19600;BME280;9947;57.722;12.012;2023-05-22T05:02:07;101784.41;;;21.03;73.56
19600;BME280;9947;57.722;12.012;2023-05-22T05:04:37;101789.16;;;20.93;77.24
19600;BME280;9947;57.722;12.012;2023-05-22T05:07:06;101779.00;;;22.05;68.65
19600;BME280;9947;57.722;12.012;2023-05-22T05:09:39;101791.19;;;22.03;69.29
19600;BME280;9947;57.722;12.012;2023-05-22T05:12:14;101778.94;;;22.39;65.39
19600;BME280;9947;57.722;12.012;2023-05-22T05:14:41;101789.72;;;22.25;65.91
19600;BME280;9947;57.722;12.012;2023-05-22T05:17:13;101787.81;;;21.83;66.86
19600;BME280;9947;57.722;12.012;2023-05-22T05:19:41;101781.25;;;21.16;69.61
19600;BME280;9947;57.722;12.012;2023-05-22T05:22:10;101779.91;;;22.22;67.18
19600;BME280;9947;57.722;12.012;2023-05-22T05:24:41;101777.91;;;22.57;61.86
19600;BME280;9947;57.722;12.012;2023-05-22T05:27:09;101774.50;;;22.87;60.19
19600;BME280;9947;57.722;12.012;2023-05-22T05:29:36;101777.44;;;22.86;59.00
19600;BME280;9947;57.722;12.012;2023-05-22T05:32:09;101779.00;;;21.71;63.72
19600;BME280;9947;57.722;12.012;2023-05-22T05:34:39;101775.69;;;23.25;57.18
19600;BME280;9947;57.722;12.012;2023-05-22T05:37:05;101768.91;;;23.36;55.49
19600;BME280;9947;57.722;12.012;2023-05-22T05:39:37;101772.56;;;25.00;50.92
19600;BME280;9947;57.722;12.012;2023-05-22T05:42:06;101767.22;;;24.52;51.59
19600;BME280;9947;57.722;12.012;2023-05-22T05:44:34;101760.38;;;24.09;51.60
19600;BME280;9947;57.722;12.012;2023-05-22T05:47:03;101762.84;;;24.58;49.57
19600;BME280;9947;57.722;12.012;2023-05-22T05:49:30;101756.63;;;25.02;48.84
19600;BME280;9947;57.722;12.012;2023-05-22T05:51:59;101757.91;;;24.22;49.74
19600;BME280;9947;57.722;12.012;2023-05-22T05:54:30;101758.34;;;25.17;48.32
19600;BME280;9947;57.722;12.012;2023-05-22T05:56:58;101758.84;;;24.38;49.19
19600;BME280;9947;57.722;12.012;2023-05-22T05:59:43;101754.06;;;24.32;49.26
19600;BME280;9947;57.722;12.012;2023-05-22T06:02:24;101755.84;;;24.16;47.78
19600;BME280;9947;57.722;12.012;2023-05-22T06:05:09;101755.19;;;23.03;50.55
19600;BME280;9947;57.722;12.012;2023-05-22T06:07:41;101760.13;;;23.32;50.53
19600;BME280;9947;57.722;12.012;2023-05-22T06:10:10;101757.47;;;23.55;48.85
19600;BME280;9947;57.722;12.012;2023-05-22T06:12:37;101762.41;;;23.21;51.71
19600;BME280;9947;57.722;12.012;2023-05-22T06:15:17;101769.44;;;23.95;48.50
19600;BME280;9947;57.722;12.012;2023-05-22T06:17:44;101765.25;;;23.60;48.19
19600;BME280;9947;57.722;12.012;2023-05-22T06:20:14;101761.00;;;24.19;46.41
19600;BME280;9947;57.722;12.012;2023-05-22T06:22:42;101755.91;;;24.39;46.30
19600;BME280;9947;57.722;12.012;2023-05-22T06:25:13;101751.31;;;24.23;46.28
19600;BME280;9947;57.722;12.012;2023-05-22T06:27:43;101757.34;;;23.96;46.91
19600;BME280;9947;57.722;12.012;2023-05-22T06:30:21;101753.78;;;23.24;47.14
19600;BME280;9947;57.722;12.012;2023-05-22T06:32:51;101749.34;;;22.98;48.23
19600;BME280;9947;57.722;12.012;2023-05-22T06:35:21;101749.16;;;23.08;47.81
19600;BME280;9947;57.722;12.012;2023-05-22T06:37:51;101744.84;;;23.05;48.11
19600;BME280;9947;57.722;12.012;2023-05-22T06:40:22;101751.38;;;23.21;48.07
19600;BME280;9947;57.722;12.012;2023-05-22T06:42:52;101754.16;;;23.04;47.86
19600;BME280;9947;57.722;12.012;2023-05-22T06:45:22;101751.78;;;22.93;47.86
19600;BME280;9947;57.722;12.012;2023-05-22T06:47:51;101748.13;;;23.01;48.86
19600;BME280;9947;57.722;12.012;2023-05-22T06:50:19;101743.09;;;22.64;51.38
19600;BME280;9947;57.722;12.012;2023-05-22T06:52:52;101746.03;;;22.62;49.66
19600;BME280;9947;57.722;12.012;2023-05-22T06:55:19;101744.34;;;22.86;47.79
19600;BME280;9947;57.722;12.012;2023-05-22T06:57:46;101739.47;;;22.63;49.56
19600;BME280;9947;57.722;12.012;2023-05-22T07:00:14;101738.81;;;22.86;49.22
19600;BME280;9947;57.722;12.012;2023-05-22T07:02:44;101740.19;;;23.06;48.19
19600;BME280;9947;57.722;12.012;2023-05-22T07:05:11;101736.56;;;22.89;47.84
19600;BME280;9947;57.722;12.012;2023-05-22T07:07:41;101733.31;;;22.69;48.27
19600;BME280;9947;57.722;12.012;2023-05-22T07:10:10;101730.72;;;22.43;48.51
19600;BME280;9947;57.722;12.012;2023-05-22T07:12:37;101733.97;;;22.31;48.76
19600;BME280;9947;57.722;12.012;2023-05-22T07:15:05;101725.72;;;22.55;49.61
19600;BME280;9947;57.722;12.012;2023-05-22T07:17:41;101728.09;;;22.26;47.86
19600;BME280;9947;57.722;12.012;2023-05-22T07:20:11;101729.91;;;21.93;49.76
19600;BME280;9947;57.722;12.012;2023-05-22T07:22:40;101724.31;;;22.27;51.04
19600;BME280;9947;57.722;12.012;2023-05-22T07:25:09;101718.97;;;22.25;50.09
19600;BME280;9947;57.722;12.012;2023-05-22T07:27:38;101712.94;;;22.38;50.45
19600;BME280;9947;57.722;12.012;2023-05-22T07:30:06;101714.53;;;22.40;49.27
19600;BME280;9947;57.722;12.012;2023-05-22T07:32:34;101715.88;;;22.20;49.55
19600;BME280;9947;57.722;12.012;2023-05-22T07:35:03;101714.00;;;22.37;49.44
19600;BME280;9947;57.722;12.012;2023-05-22T07:37:33;101717.47;;;22.39;49.31
19600;BME280;9947;57.722;12.012;2023-05-22T07:40:01;101705.56;;;22.55;47.69
19600;BME280;9947;57.722;12.012;2023-05-22T07:42:30;101719.34;;;22.87;47.69
19600;BME280;9947;57.722;12.012;2023-05-22T07:44:59;101707.97;;;22.74;48.72
19600;BME280;9947;57.722;12.012;2023-05-22T07:47:27;101708.00;;;22.41;48.12
19600;BME280;9947;57.722;12.012;2023-05-22T07:49:57;101712.09;;;22.62;48.24
19600;BME280;9947;57.722;12.012;2023-05-22T07:52:24;101711.94;;;22.39;47.55
19600;BME280;9947;57.722;12.012;2023-05-22T07:54:54;101711.44;;;22.92;47.86
19600;BME280;9947;57.722;12.012;2023-05-22T07:57:21;101717.84;;;23.48;48.26
19600;BME280;9947;57.722;12.012;2023-05-22T07:59:52;101717.47;;;23.59;48.38
19600;BME280;9947;57.722;12.012;2023-05-22T08:02:19;101726.41;;;23.70;47.25
19600;BME280;9947;57.722;12.012;2023-05-22T08:04:48;101730.59;;;23.57;46.13
19600;BME280;9947;57.722;12.012;2023-05-22T08:07:16;101730.06;;;22.90;46.82
19600;BME280;9947;57.722;12.012;2023-05-22T08:09:43;101736.97;;;23.42;46.44
19600;BME280;9947;57.722;12.012;2023-05-22T08:12:12;101726.50;;;23.84;46.53
19600;BME280;9947;57.722;12.012;2023-05-22T08:14:39;101729.03;;;23.94;45.84
19600;BME280;9947;57.722;12.012;2023-05-22T08:17:09;101718.22;;;23.84;45.71
19600;BME280;9947;57.722;12.012;2023-05-22T08:19:38;101721.97;;;24.22;46.12
19600;BME280;9947;57.722;12.012;2023-05-22T08:22:06;101717.03;;;24.10;45.49
19600;BME280;9947;57.722;12.012;2023-05-22T08:24:38;101715.50;;;23.76;45.61
19600;BME280;9947;57.722;12.012;2023-05-22T08:27:05;101712.81;;;23.91;47.34
19600;BME280;9947;57.722;12.012;2023-05-22T08:29:34;101714.38;;;23.54;46.60
19600;BME280;9947;57.722;12.012;2023-05-22T08:32:04;101716.22;;;23.70;46.83
19600;BME280;9947;57.722;12.012;2023-05-22T08:34:32;101702.25;;;23.72;46.61
19600;BME280;9947;57.722;12.012;2023-05-22T08:37:03;101708.34;;;23.51;48.36
19600;BME280;9947;57.722;12.012;2023-05-22T08:39:33;101713.84;;;23.59;47.90
19600;BME280;9947;57.722;12.012;2023-05-22T08:42:00;101705.50;;;23.28;47.91
19600;BME280;9947;57.722;12.012;2023-05-22T08:44:29;101701.97;;;23.50;47.53
19600;BME280;9947;57.722;12.012;2023-05-22T08:47:00;101698.22;;;23.43;47.50
19600;BME280;9947;57.722;12.012;2023-05-22T08:49:29;101703.31;;;23.54;47.56
19600;BME280;9947;57.722;12.012;2023-05-22T08:52:02;101698.09;;;23.20;46.96
19600;BME280;9947;57.722;12.012;2023-05-22T08:54:35;101696.09;;;22.65;47.23
19600;BME280;9947;57.722;12.012;2023-05-22T08:57:12;101698.84;;;22.33;48.49
19600;BME280;9947;57.722;12.012;2023-05-22T08:59:40;101694.22;;;22.41;48.22
19600;BME280;9947;57.722;12.012;2023-05-22T09:02:12;101701.06;;;22.37;48.87
19600;BME280;9947;57.722;12.012;2023-05-22T09:04:40;101695.41;;;22.31;48.76
19600;BME280;9947;57.722;12.012;2023-05-22T09:07:07;101696.78;;;22.35;48.56
19600;BME280;9947;57.722;12.012;2023-05-22T09:09:36;101705.63;;;21.88;48.45
19600;BME280;9947;57.722;12.012;2023-05-22T09:12:07;101701.00;;;21.97;47.74
19600;BME280;9947;57.722;12.012;2023-05-22T09:14:40;101703.75;;;21.97;48.38
19600;BME280;9947;57.722;12.012;2023-05-22T09:17:08;101704.44;;;21.99;49.11
19600;BME280;9947;57.722;12.012;2023-05-22T09:19:37;101702.41;;;22.09;48.38
19600;BME280;9947;57.722;12.012;2023-05-22T09:22:04;101703.06;;;22.03;48.32
19600;BME280;9947;57.722;12.012;2023-05-22T09:24:37;101703.41;;;21.92;48.14
19600;BME280;9947;57.722;12.012;2023-05-22T09:27:05;101694.13;;;22.01;48.01
19600;BME280;9947;57.722;12.012;2023-05-22T09:29:46;101689.66;;;22.00;47.78
19600;BME280;9947;57.722;12.012;2023-05-22T09:32:14;101697.56;;;21.95;47.41
19600;BME280;9947;57.722;12.012;2023-05-22T09:34:49;101691.81;;;21.80;47.50
19600;BME280;9947;57.722;12.012;2023-05-22T09:37:19;101697.16;;;21.81;47.49
19600;BME280;9947;57.722;12.012;2023-05-22T09:39:50;101685.16;;;21.99;47.87
19600;BME280;9947;57.722;12.012;2023-05-22T09:42:19;101672.00;;;22.19;47.17
19600;BME280;9947;57.722;12.012;2023-05-22T09:44:47;101679.41;;;22.42;47.19
19600;BME280;9947;57.722;12.012;2023-05-22T09:47:17;101671.13;;;22.34;46.62
19600;BME280;9947;57.722;12.012;2023-05-22T09:49:46;101682.31;;;22.33;45.89
19600;BME280;9947;57.722;12.012;2023-05-22T09:52:17;101673.19;;;22.49;45.15
19600;BME280;9947;57.722;12.012;2023-05-22T09:54:49;101669.59;;;22.64;44.74
19600;BME280;9947;57.722;12.012;2023-05-22T09:57:20;101672.13;;;22.98;44.97
19600;BME280;9947;57.722;12.012;2023-05-22T09:59:53;101665.22;;;23.02;45.08
19600;BME280;9947;57.722;12.012;2023-05-22T10:02:25;101651.97;;;22.98;45.65
19600;BME280;9947;57.722;12.012;2023-05-22T10:04:58;101646.38;;;23.14;45.28
19600;BME280;9947;57.722;12.012;2023-05-22T10:07:33;101647.34;;;22.90;44.79
19600;BME280;9947;57.722;12.012;2023-05-22T10:10:06;101644.25;;;22.61;45.05
19600;BME280;9947;57.722;12.012;2023-05-22T10:12:40;101642.72;;;22.50;46.13
19600;BME280;9947;57.722;12.012;2023-05-22T10:15:12;101642.53;;;22.52;46.47
19600;BME280;9947;57.722;12.012;2023-05-22T10:17:40;101634.47;;;22.42;45.30
19600;BME280;9947;57.722;12.012;2023-05-22T10:20:11;101627.00;;;22.75;45.04
19600;BME280;9947;57.722;12.012;2023-05-22T10:22:41;101631.97;;;22.80;45.54
19600;BME280;9947;57.722;12.012;2023-05-22T10:25:09;101622.69;;;22.97;46.75
19600;BME280;9947;57.722;12.012;2023-05-22T10:27:37;101617.03;;;22.90;44.85
19600;BME280;9947;57.722;12.012;2023-05-22T10:30:17;101622.00;;;22.95;47.09
19600;BME280;9947;57.722;12.012;2023-05-22T10:32:55;101608.56;;;22.84;47.32
19600;BME280;9947;57.722;12.012;2023-05-22T10:35:31;101613.03;;;22.93;48.39
19600;BME280;9947;57.722;12.012;2023-05-22T10:40:56;101597.06;;;22.56;47.62
19600;BME280;9947;57.722;12.012;2023-05-22T10:43:32;101586.78;;;22.25;47.82
19600;BME280;9947;57.722;12.012;2023-05-22T10:46:06;101589.22;;;22.12;48.80
19600;BME280;9947;57.722;12.012;2023-05-22T10:48:37;101585.56;;;22.20;48.42
19600;BME280;9947;57.722;12.012;2023-05-22T10:51:12;101576.09;;;22.30;50.38
19600;BME280;9947;57.722;12.012;2023-05-22T10:53:42;101581.78;;;22.29;50.27
19600;BME280;9947;57.722;12.012;2023-05-22T10:56:15;101579.88;;;22.37;51.53
19600;BME280;9947;57.722;12.012;2023-05-22T10:58:45;101582.63;;;22.37;48.90
19600;BME280;9947;57.722;12.012;2023-05-22T11:01:30;101568.47;;;22.65;49.62
19600;BME280;9947;57.722;12.012;2023-05-22T11:04:16;101561.31;;;22.23;50.48
19600;BME280;9947;57.722;12.012;2023-05-22T11:06:45;101554.56;;;22.42;50.37
19600;BME280;9947;57.722;12.012;2023-05-22T11:09:26;101551.28;;;22.46;51.85
19600;BME280;9947;57.722;12.012;2023-05-22T11:12:17;101555.41;;;22.51;54.18
19600;BME280;9947;57.722;12.012;2023-05-22T11:14:55;101547.16;;;22.34;52.43
19600;BME280;9947;57.722;12.012;2023-05-22T11:17:23;101545.63;;;22.24;52.60
19600;BME280;9947;57.722;12.012;2023-05-22T11:20:12;101539.97;;;22.09;54.19
19600;BME280;9947;57.722;12.012;2023-05-22T11:22:51;101542.00;;;22.31;54.49
19600;BME280;9947;57.722;12.012;2023-05-22T11:25:31;101530.31;;;22.21;54.69
19600;BME280;9947;57.722;12.012;2023-05-22T11:28:01;101531.34;;;22.28;55.43
19600;BME280;9947;57.722;12.012;2023-05-22T11:30:30;101526.88;;;22.27;54.83
19600;BME280;9947;57.722;12.012;2023-05-22T11:33:03;101524.78;;;22.45;53.89
19600;BME280;9947;57.722;12.012;2023-05-22T11:35:33;101527.13;;;22.57;53.74
19600;BME280;9947;57.722;12.012;2023-05-22T11:38:04;101513.19;;;22.58;54.25
19600;BME280;9947;57.722;12.012;2023-05-22T11:40:31;101528.56;;;22.36;53.38
19600;BME280;9947;57.722;12.012;2023-05-22T11:42:59;101514.16;;;22.18;54.56
19600;BME280;9947;57.722;12.012;2023-05-22T11:45:35;101508.28;;;22.21;56.14
19600;BME280;9947;57.722;12.012;2023-05-22T11:48:07;101501.94;;;22.21;56.10
19600;BME280;9947;57.722;12.012;2023-05-22T11:50:38;101501.53;;;22.40;54.98
19600;BME280;9947;57.722;12.012;2023-05-22T11:53:06;101489.09;;;22.52;53.83
19600;BME280;9947;57.722;12.012;2023-05-22T11:55:34;101489.97;;;22.53;55.12
19600;BME280;9947;57.722;12.012;2023-05-22T11:58:01;101487.94;;;22.38;53.79
19600;BME280;9947;57.722;12.012;2023-05-22T12:00:30;101485.72;;;22.26;53.77
19600;BME280;9947;57.722;12.012;2023-05-22T12:02:58;101471.22;;;22.48;54.11
19600;BME280;9947;57.722;12.012;2023-05-22T12:05:25;101469.75;;;22.60;52.99
19600;BME280;9947;57.722;12.012;2023-05-22T12:07:52;101468.00;;;22.75;51.57
19600;BME280;9947;57.722;12.012;2023-05-22T12:10:21;101461.00;;;22.65;51.10
19600;BME280;9947;57.722;12.012;2023-05-22T12:12:54;101455.41;;;22.81;50.55
19600;BME280;9947;57.722;12.012;2023-05-22T12:15:23;101455.22;;;23.14;50.65
19600;BME280;9947;57.722;12.012;2023-05-22T12:17:53;101442.47;;;23.13;50.84
19600;BME280;9947;57.722;12.012;2023-05-22T12:20:27;101445.44;;;23.34;51.36
19600;BME280;9947;57.722;12.012;2023-05-22T12:22:56;101440.38;;;23.15;50.51
19600;BME280;9947;57.722;12.012;2023-05-22T12:25:32;101430.47;;;23.05;51.32
19600;BME280;9947;57.722;12.012;2023-05-22T12:28:00;101434.47;;;23.26;50.02
19600;BME280;9947;57.722;12.012;2023-05-22T12:30:37;101432.06;;;23.23;49.19
19600;BME280;9947;57.722;12.012;2023-05-22T12:33:10;101427.91;;;23.27;47.83
19600;BME280;9947;57.722;12.012;2023-05-22T12:35:37;101431.22;;;23.22;48.55
19600;BME280;9947;57.722;12.012;2023-05-22T12:38:06;101422.00;;;23.53;46.99
19600;BME280;9947;57.722;12.012;2023-05-22T12:40:35;101419.66;;;23.42;47.26
19600;BME280;9947;57.722;12.012;2023-05-22T12:43:04;101419.25;;;23.90;47.30
19600;BME280;9947;57.722;12.012;2023-05-22T12:45:33;101414.16;;;23.64;47.52
19600;BME280;9947;57.722;12.012;2023-05-22T12:48:01;101412.50;;;23.55;46.14
19600;BME280;9947;57.722;12.012;2023-05-22T12:50:30;101408.59;;;23.73;45.51
19600;BME280;9947;57.722;12.012;2023-05-22T12:53:00;101415.63;;;23.75;43.86
19600;BME280;9947;57.722;12.012;2023-05-22T12:55:29;101401.38;;;24.01;43.33
19600;BME280;9947;57.722;12.012;2023-05-22T12:57:58;101404.50;;;24.13;42.46
19600;BME280;9947;57.722;12.012;2023-05-22T13:00:25;101394.34;;;24.43;42.20
19600;BME280;9947;57.722;12.012;2023-05-22T13:02:52;101396.31;;;24.19;43.17
19600;BME280;9947;57.722;12.012;2023-05-22T13:05:21;101390.63;;;24.36;44.17
19600;BME280;9947;57.722;12.012;2023-05-22T13:07:48;101398.47;;;24.32;43.09
19600;BME280;9947;57.722;12.012;2023-05-22T13:10:19;101402.78;;;23.82;44.33
19600;BME280;9947;57.722;12.012;2023-05-22T13:12:47;101390.13;;;23.88;44.18
19600;BME280;9947;57.722;12.012;2023-05-22T13:15:17;101383.16;;;23.92;43.39
19600;BME280;9947;57.722;12.012;2023-05-22T13:17:46;101389.75;;;23.76;44.24
19600;BME280;9947;57.722;12.012;2023-05-22T13:20:13;101378.25;;;24.02;44.17
19600;BME280;9947;57.722;12.012;2023-05-22T13:22:43;101384.16;;;24.28;42.40
19600;BME280;9947;57.722;12.012;2023-05-22T13:25:12;101373.06;;;24.58;41.35
19600;BME280;9947;57.722;12.012;2023-05-22T13:27:40;101367.78;;;25.14;41.22
19600;BME280;9947;57.722;12.012;2023-05-22T13:30:08;101375.06;;;25.21;40.17
19600;BME280;9947;57.722;12.012;2023-05-22T13:32:38;101363.84;;;25.02;40.42
19600;BME280;9947;57.722;12.012;2023-05-22T13:35:11;101370.00;;;24.68;39.72
19600;BME280;9947;57.722;12.012;2023-05-22T13:37:39;101372.28;;;24.64;39.61
19600;BME280;9947;57.722;12.012;2023-05-22T13:40:07;101370.63;;;24.84;43.18
19600;BME280;9947;57.722;12.012;2023-05-22T13:42:34;101371.47;;;25.00;42.03
19600;BME280;9947;57.722;12.012;2023-05-22T13:45:01;101365.41;;;25.11;42.16